sensor_id;sensor_type;location;lat;lon;timestamp;pressure;altitude;pressure_sealevel;temperature;humidity
72124;BME280;63818;37.134;-8.548;2022-11-20T00:02:53;102428.6;;;16.4;71.6
72124;BME280;63818;37.134;-8.548;2022-11-20T00:07:44;102417.8;;;16.4;72.1
72124;BME280;63818;37.134;-8.548;2022-11-20T00:12:31;102412.7;;;16.4;71.7
72124;BME280;63818;37.134;-8.548;2022-11-20T00:17:17;102407.3;;;16.4;71.5
72124;BME280;63818;37.134;-8.548;2022-11-20T00:22:05;102422.9;;;16.3;72.0
72124;BME280;63818;37.134;-8.548;2022-11-20T00:26:53;102421.9;;;16.4;71.6
72124;BME280;63818;37.134;-8.548;2022-11-20T00:31:39;102420.0;;;16.4;71.8
72124;BME280;63818;37.134;-8.548;2022-11-20T00:36:26;102428.5;;;16.4;72.1
72124;BME280;63818;37.134;-8.548;2022-11-20T00:41:13;102436.3;;;16.2;72.3
72124;BME280;63818;37.134;-8.548;2022-11-20T00:46:00;102437.6;;;16.3;72.5
72124;BME280;63818;37.134;-8.548;2022-11-20T00:50:46;102433.1;;;16.2;72.8
72124;BME280;63818;37.134;-8.548;2022-11-20T00:55:32;102426.1;;;16.2;72.9
72124;BME280;63818;37.134;-8.548;2022-11-20T01:00:18;102420.0;;;16.2;73.2
72124;BME280;63818;37.134;-8.548;2022-11-20T01:05:05;102418.7;;;16.2;72.9
72124;BME280;63818;37.134;-8.548;2022-11-20T01:09:51;102419.6;;;16.2;73.0
72124;BME280;63818;37.134;-8.548;2022-11-20T01:14:39;102420.3;;;16.1;73.5
72124;BME280;63818;37.134;-8.548;2022-11-20T01:19:25;102427.5;;;16.2;73.6
72124;BME280;63818;37.134;-8.548;2022-11-20T01:24:14;102429.4;;;16.2;73.5
72124;BME280;63818;37.134;-8.548;2022-11-20T01:29:01;102420.6;;;16.1;72.9
72124;BME280;63818;37.134;-8.548;2022-11-20T01:33:49;102417.8;;;16.0;73.7
72124;BME280;63818;37.134;-8.548;2022-11-20T01:38:35;102408.0;;;16.0;74.0
72124;BME280;63818;37.134;-8.548;2022-11-20T01:43:22;102410.0;;;16.1;73.7
72124;BME280;63818;37.134;-8.548;2022-11-20T01:48:08;102404.6;;;16.1;73.8
72124;BME280;63818;37.134;-8.548;2022-11-20T01:52:56;102403.0;;;16.1;73.5
72124;BME280;63818;37.134;-8.548;2022-11-20T01:57:44;102400.9;;;16.1;73.5
72124;BME280;63818;37.134;-8.548;2022-11-20T02:02:31;102398.2;;;15.9;73.9
72124;BME280;63818;37.134;-8.548;2022-11-20T02:07:18;102386.9;;;15.9;74.4
72124;BME280;63818;37.134;-8.548;2022-11-20T02:12:05;102395.6;;;15.9;74.4
72124;BME280;63818;37.134;-8.548;2022-11-20T02:16:51;102379.2;;;15.9;74.1
72124;BME280;63818;37.134;-8.548;2022-11-20T02:21:41;102368.9;;;15.9;74.2
72124;BME280;63818;37.134;-8.548;2022-11-20T02:26:30;102378.4;;;15.9;74.4
72124;BME280;63818;37.134;-8.548;2022-11-20T02:31:17;102381.7;;;15.9;74.3
72124;BME280;63818;37.134;-8.548;2022-11-20T02:36:04;102383.9;;;15.9;74.3
72124;BME280;63818;37.134;-8.548;2022-11-20T02:40:50;102387.6;;;15.8;74.7
72124;BME280;63818;37.134;-8.548;2022-11-20T02:45:36;102376.2;;;15.8;75.1
72124;BME280;63818;37.134;-8.548;2022-11-20T02:50:27;102392.3;;;15.9;74.9
72124;BME280;63818;37.134;-8.548;2022-11-20T02:55:15;102389.8;;;15.7;75.5
72124;BME280;63818;37.134;-8.548;2022-11-20T03:00:02;102380.6;;;15.8;75.5
72124;BME280;63818;37.134;-8.548;2022-11-20T03:04:49;102386.2;;;15.8;75.5
72124;BME280;63818;37.134;-8.548;2022-11-20T03:09:36;102393.1;;;15.8;75.5
72124;BME280;63818;37.134;-8.548;2022-11-20T03:14:22;102394.3;;;15.7;75.8
72124;BME280;63818;37.134;-8.548;2022-11-20T03:19:08;102387.0;;;15.7;76.4
72124;BME280;63818;37.134;-8.548;2022-11-20T03:23:54;102381.9;;;15.6;76.4
72124;BME280;63818;37.134;-8.548;2022-11-20T03:28:41;102386.7;;;15.6;76.1
72124;BME280;63818;37.134;-8.548;2022-11-20T03:33:31;102383.1;;;15.4;76.2
72124;BME280;63818;37.134;-8.548;2022-11-20T03:38:18;102370.0;;;15.5;76.1
72124;BME280;63818;37.134;-8.548;2022-11-20T03:43:03;102372.2;;;15.4;76.1
72124;BME280;63818;37.134;-8.548;2022-11-20T03:47:49;102348.4;;;15.5;76.2
72124;BME280;63818;37.134;-8.548;2022-11-20T03:52:35;102354.1;;;15.5;76.0
72124;BME280;63818;37.134;-8.548;2022-11-20T03:57:21;102344.2;;;15.5;76.3
72124;BME280;63818;37.134;-8.548;2022-11-20T04:02:07;102342.1;;;15.5;76.0
72124;BME280;63818;37.134;-8.548;2022-11-20T04:06:53;102339.4;;;15.5;76.4
72124;BME280;63818;37.134;-8.548;2022-11-20T04:11:40;102335.2;;;15.4;76.3
72124;BME280;63818;37.134;-8.548;2022-11-20T04:16:30;102335.3;;;15.4;76.2
72124;BME280;63818;37.134;-8.548;2022-11-20T04:21:17;102331.9;;;15.3;75.8
72124;BME280;63818;37.134;-8.548;2022-11-20T04:26:03;102326.5;;;15.3;75.8
72124;BME280;63818;37.134;-8.548;2022-11-20T04:30:50;102330.8;;;15.3;75.7
72124;BME280;63818;37.134;-8.548;2022-11-20T04:35:37;102342.1;;;15.3;76.0
72124;BME280;63818;37.134;-8.548;2022-11-20T04:40:25;102328.1;;;15.3;75.7
72124;BME280;63818;37.134;-8.548;2022-11-20T04:45:14;102336.7;;;15.3;75.7
72124;BME280;63818;37.134;-8.548;2022-11-20T04:50:01;102347.8;;;15.4;75.5
72124;BME280;63818;37.134;-8.548;2022-11-20T04:54:46;102353.1;;;15.3;75.4
72124;BME280;63818;37.134;-8.548;2022-11-20T04:59:32;102357.6;;;15.2;76.0
72124;BME280;63818;37.134;-8.548;2022-11-20T05:04:18;102348.5;;;15.1;76.2
72124;BME280;63818;37.134;-8.548;2022-11-20T05:09:04;102357.6;;;15.1;76.3
72124;BME280;63818;37.134;-8.548;2022-11-20T05:13:51;102353.7;;;15.2;75.7
72124;BME280;63818;37.134;-8.548;2022-11-20T05:18:38;102350.0;;;15.2;75.6
72124;BME280;63818;37.134;-8.548;2022-11-20T05:23:24;102358.6;;;15.0;75.8
72124;BME280;63818;37.134;-8.548;2022-11-20T05:28:10;102357.5;;;15.1;76.1
72124;BME280;63818;37.134;-8.548;2022-11-20T05:32:56;102354.7;;;15.0;76.3
72124;BME280;63818;37.134;-8.548;2022-11-20T05:37:42;102361.7;;;15.0;76.2
72124;BME280;63818;37.134;-8.548;2022-11-20T05:42:29;102352.5;;;15.0;75.9
72124;BME280;63818;37.134;-8.548;2022-11-20T05:47:15;102345.3;;;14.9;75.4
72124;BME280;63818;37.134;-8.548;2022-11-20T05:52:03;102340.9;;;14.9;75.4
72124;BME280;63818;37.134;-8.548;2022-11-20T05:56:49;102346.8;;;15.0;74.9
72124;BME280;63818;37.134;-8.548;2022-11-20T06:01:35;102337.4;;;14.9;74.8
72124;BME280;63818;37.134;-8.548;2022-11-20T06:06:22;102354.7;;;14.8;75.4
72124;BME280;63818;37.134;-8.548;2022-11-20T06:11:10;102356.9;;;14.9;75.2
72124;BME280;63818;37.134;-8.548;2022-11-20T06:20:47;102355.8;;;15.0;75.1
72124;BME280;63818;37.134;-8.548;2022-11-20T06:25:32;102362.8;;;15.0;74.7
72124;BME280;63818;37.134;-8.548;2022-11-20T06:30:21;102377.8;;;14.9;74.8
72124;BME280;63818;37.134;-8.548;2022-11-20T06:35:07;102383.5;;;14.9;75.0
72124;BME280;63818;37.134;-8.548;2022-11-20T06:39:53;102399.9;;;14.8;75.0
72124;BME280;63818;37.134;-8.548;2022-11-20T06:44:41;102402.2;;;14.8;75.0
72124;BME280;63818;37.134;-8.548;2022-11-20T06:49:27;102413.6;;;14.9;75.1
72124;BME280;63818;37.134;-8.548;2022-11-20T06:54:13;102412.0;;;14.9;75.0
72124;BME280;63818;37.134;-8.548;2022-11-20T06:59:03;102406.4;;;14.8;74.9
72124;BME280;63818;37.134;-8.548;2022-11-20T07:03:52;102403.1;;;14.8;75.4
72124;BME280;63818;37.134;-8.548;2022-11-20T07:08:38;102411.8;;;14.8;75.4
72124;BME280;63818;37.134;-8.548;2022-11-20T07:13:24;102403.2;;;14.8;75.2
72124;BME280;63818;37.134;-8.548;2022-11-20T07:18:10;102407.6;;;14.7;75.5
72124;BME280;63818;37.134;-8.548;2022-11-20T07:22:57;102435.2;;;14.7;76.0
72124;BME280;63818;37.134;-8.548;2022-11-20T07:27:43;102441.7;;;14.7;75.9
72124;BME280;63818;37.134;-8.548;2022-11-20T07:32:31;102448.7;;;14.7;75.5
72124;BME280;63818;37.134;-8.548;2022-11-20T07:37:18;102460.4;;;14.7;75.6
72124;BME280;63818;37.134;-8.548;2022-11-20T07:42:05;102452.3;;;14.7;75.6
72124;BME280;63818;37.134;-8.548;2022-11-20T07:46:51;102465.8;;;14.7;75.7
72124;BME280;63818;37.134;-8.548;2022-11-20T07:51:37;102465.8;;;14.7;75.7
72124;BME280;63818;37.134;-8.548;2022-11-20T07:56:23;102469.0;;;14.7;75.2
72124;BME280;63818;37.134;-8.548;2022-11-20T08:01:09;102475.2;;;14.7;75.1
72124;BME280;63818;37.134;-8.548;2022-11-20T08:05:58;102480.3;;;14.7;75.0
72124;BME280;63818;37.134;-8.548;2022-11-20T08:10:46;102490.3;;;14.8;74.5
72124;BME280;63818;37.134;-8.548;2022-11-20T08:15:32;102499.5;;;14.8;74.9
72124;BME280;63818;37.134;-8.548;2022-11-20T08:20:20;102504.6;;;14.8;74.6
72124;BME280;63818;37.134;-8.548;2022-11-20T08:25:07;102490.3;;;14.8;74.8
72124;BME280;63818;37.134;-8.548;2022-11-20T08:29:53;102504.7;;;14.7;74.8
72124;BME280;63818;37.134;-8.548;2022-11-20T08:34:38;102526.6;;;14.8;75.1
72124;BME280;63818;37.134;-8.548;2022-11-20T08:39:24;102536.7;;;14.8;75.1
72124;BME280;63818;37.134;-8.548;2022-11-20T08:44:11;102547.3;;;14.9;75.3
72124;BME280;63818;37.134;-8.548;2022-11-20T08:49:01;102558.7;;;14.8;76.0
72124;BME280;63818;37.134;-8.548;2022-11-20T08:53:47;102551.2;;;14.9;75.9
72124;BME280;63818;37.134;-8.548;2022-11-20T08:58:33;102544.7;;;15.0;75.8
72124;BME280;63818;37.134;-8.548;2022-11-20T09:03:19;102551.8;;;14.9;76.5
72124;BME280;63818;37.134;-8.548;2022-11-20T09:08:05;102553.2;;;15.1;76.3
72124;BME280;63818;37.134;-8.548;2022-11-20T09:12:56;102553.7;;;15.1;76.5
72124;BME280;63818;37.134;-8.548;2022-11-20T09:17:42;102554.0;;;15.1;76.5
72124;BME280;63818;37.134;-8.548;2022-11-20T09:22:28;102567.4;;;15.2;76.7
72124;BME280;63818;37.134;-8.548;2022-11-20T09:27:14;102576.0;;;15.2;76.8
72124;BME280;63818;37.134;-8.548;2022-11-20T09:31:59;102581.9;;;15.3;76.7
72124;BME280;63818;37.134;-8.548;2022-11-20T09:36:47;102565.5;;;15.4;77.1
72124;BME280;63818;37.134;-8.548;2022-11-20T09:42:02;102575.5;;;15.4;77.7
72124;BME280;63818;37.134;-8.548;2022-11-20T09:46:55;102582.1;;;15.3;79.8
72124;BME280;63818;37.134;-8.548;2022-11-20T09:51:46;102588.1;;;15.4;83.0
72124;BME280;63818;37.134;-8.548;2022-11-20T09:56:40;102585.4;;;15.4;84.1
72124;BME280;63818;37.134;-8.548;2022-11-20T10:01:32;102600.2;;;15.6;85.1
72124;BME280;63818;37.134;-8.548;2022-11-20T10:06:24;102604.5;;;15.6;85.4
72124;BME280;63818;37.134;-8.548;2022-11-20T10:11:19;102619.7;;;15.7;85.7
72124;BME280;63818;37.134;-8.548;2022-11-20T10:16:18;102618.4;;;15.8;85.6
72124;BME280;63818;37.134;-8.548;2022-11-20T10:21:15;102615.2;;;15.8;85.8
72124;BME280;63818;37.134;-8.548;2022-11-20T10:26:21;102626.4;;;15.9;84.9
72124;BME280;63818;37.134;-8.548;2022-11-20T10:31:11;102629.2;;;16.0;84.8
72124;BME280;63818;37.134;-8.548;2022-11-20T10:36:08;102628.1;;;16.0;85.1
72124;BME280;63818;37.134;-8.548;2022-11-20T10:41:01;102621.3;;;16.1;85.2
72124;BME280;63818;37.134;-8.548;2022-11-20T10:45:53;102620.6;;;16.1;86.9
72124;BME280;63818;37.134;-8.548;2022-11-20T10:50:50;102613.3;;;16.1;86.2
72124;BME280;63818;37.134;-8.548;2022-11-20T10:55:45;102602.5;;;16.1;86.0
72124;BME280;63818;37.134;-8.548;2022-11-20T11:00:35;102596.5;;;16.1;86.5
72124;BME280;63818;37.134;-8.548;2022-11-20T11:05:33;102601.6;;;16.1;86.2
72124;BME280;63818;37.134;-8.548;2022-11-20T11:10:25;102595.6;;;16.2;86.1
72124;BME280;63818;37.134;-8.548;2022-11-20T11:15:30;102579.1;;;16.2;86.3
72124;BME280;63818;37.134;-8.548;2022-11-20T11:20:22;102576.8;;;16.3;86.1
72124;BME280;63818;37.134;-8.548;2022-11-20T11:25:35;102571.6;;;16.2;86.5
72124;BME280;63818;37.134;-8.548;2022-11-20T11:30:23;102561.7;;;16.2;87.0
72124;BME280;63818;37.134;-8.548;2022-11-20T11:35:27;102548.3;;;16.2;87.5
72124;BME280;63818;37.134;-8.548;2022-11-20T11:40:20;102544.8;;;16.2;88.3
72124;BME280;63818;37.134;-8.548;2022-11-20T11:45:15;102549.6;;;16.3;88.1
72124;BME280;63818;37.134;-8.548;2022-11-20T11:50:14;102552.8;;;16.3;88.6
72124;BME280;63818;37.134;-8.548;2022-11-20T11:55:03;102532.9;;;16.3;88.8
72124;BME280;63818;37.134;-8.548;2022-11-20T11:59:57;102531.5;;;16.4;89.2
72124;BME280;63818;37.134;-8.548;2022-11-20T12:04:49;102524.3;;;16.5;88.9
72124;BME280;63818;37.134;-8.548;2022-11-20T12:09:43;102527.7;;;16.5;87.1
72124;BME280;63818;37.134;-8.548;2022-11-20T12:14:37;102526.0;;;16.5;84.8
72124;BME280;63818;37.134;-8.548;2022-11-20T12:19:28;102521.4;;;16.7;85.3
72124;BME280;63818;37.134;-8.548;2022-11-20T12:24:37;102514.7;;;16.7;85.4
72124;BME280;63818;37.134;-8.548;2022-11-20T12:29:38;102513.3;;;16.8;85.1
72124;BME280;63818;37.134;-8.548;2022-11-20T12:34:47;102501.6;;;16.8;84.2
72124;BME280;63818;37.134;-8.548;2022-11-20T12:39:41;102493.1;;;16.8;84.5
72124;BME280;63818;37.134;-8.548;2022-11-20T12:44:52;102488.7;;;16.9;84.1
72124;BME280;63818;37.134;-8.548;2022-11-20T12:49:56;102477.5;;;16.9;84.5
72124;BME280;63818;37.134;-8.548;2022-11-20T12:54:56;102476.5;;;16.9;84.2
72124;BME280;63818;37.134;-8.548;2022-11-20T12:59:53;102474.2;;;16.9;85.3
72124;BME280;63818;37.134;-8.548;2022-11-20T13:04:59;102467.7;;;17.0;84.7
72124;BME280;63818;37.134;-8.548;2022-11-20T13:09:50;102460.9;;;17.1;83.7
72124;BME280;63818;37.134;-8.548;2022-11-20T13:14:42;102452.9;;;17.3;82.0
72124;BME280;63818;37.134;-8.548;2022-11-20T13:19:30;102445.6;;;17.4;80.3
72124;BME280;63818;37.134;-8.548;2022-11-20T13:24:29;102440.0;;;17.4;80.9
72124;BME280;63818;37.134;-8.548;2022-11-20T13:29:19;102446.1;;;17.3;79.7
72124;BME280;63818;37.134;-8.548;2022-11-20T13:34:22;102445.5;;;17.3;80.9
72124;BME280;63818;37.134;-8.548;2022-11-20T13:39:05;102441.7;;;17.2;82.2
72124;BME280;63818;37.134;-8.548;2022-11-20T13:43:51;102429.2;;;17.2;82.6
72124;BME280;63818;37.134;-8.548;2022-11-20T13:48:41;102434.6;;;17.2;82.8
72124;BME280;63818;37.134;-8.548;2022-11-20T13:53:43;102425.2;;;17.2;83.1
72124;BME280;63818;37.134;-8.548;2022-11-20T13:58:36;102416.1;;;17.2;82.4
72124;BME280;63818;37.134;-8.548;2022-11-20T14:03:29;102412.0;;;17.4;82.0
72124;BME280;63818;37.134;-8.548;2022-11-20T14:08:27;102405.2;;;17.5;81.9
72124;BME280;63818;37.134;-8.548;2022-11-20T14:13:18;102401.6;;;17.6;80.2
72124;BME280;63818;37.134;-8.548;2022-11-20T14:18:14;102390.5;;;17.7;79.3
72124;BME280;63818;37.134;-8.548;2022-11-20T14:23:01;102390.5;;;17.5;79.8
72124;BME280;63818;37.134;-8.548;2022-11-20T14:27:51;102397.1;;;17.5;79.7
72124;BME280;63818;37.134;-8.548;2022-11-20T14:32:38;102386.2;;;17.7;79.5
72124;BME280;63818;37.134;-8.548;2022-11-20T14:37:25;102386.1;;;17.9;79.0
72124;BME280;63818;37.134;-8.548;2022-11-20T14:42:19;102380.6;;;18.9;76.1
72124;BME280;63818;37.134;-8.548;2022-11-20T14:47:08;102369.7;;;19.8;72.0
72124;BME280;63818;37.134;-8.548;2022-11-20T14:52:13;102362.7;;;21.0;67.6
72124;BME280;63818;37.134;-8.548;2022-11-20T14:57:02;102365.0;;;22.3;62.3
72124;BME280;63818;37.134;-8.548;2022-11-20T15:01:56;102366.7;;;21.5;65.1
72124;BME280;63818;37.134;-8.548;2022-11-20T15:06:52;102361.1;;;22.3;62.0
72124;BME280;63818;37.134;-8.548;2022-11-20T15:11:40;102361.1;;;22.3;61.7
72124;BME280;63818;37.134;-8.548;2022-11-20T15:16:31;102358.6;;;21.6;63.2
72124;BME280;63818;37.134;-8.548;2022-11-20T15:21:19;102357.2;;;20.5;67.1
72124;BME280;63818;37.134;-8.548;2022-11-20T15:26:06;102361.6;;;20.2;69.0
72124;BME280;63818;37.134;-8.548;2022-11-20T15:30:52;102369.4;;;19.8;70.8
72124;BME280;63818;37.134;-8.548;2022-11-20T15:35:38;102379.0;;;19.2;73.1
72124;BME280;63818;37.134;-8.548;2022-11-20T15:40:26;102395.6;;;18.9;75.2
72124;BME280;63818;37.134;-8.548;2022-11-20T15:45:11;102390.3;;;18.6;76.8
72124;BME280;63818;37.134;-8.548;2022-11-20T15:49:58;102389.0;;;18.5;77.4
72124;BME280;63818;37.134;-8.548;2022-11-20T15:54:46;102392.4;;;18.4;77.5
72124;BME280;63818;37.134;-8.548;2022-11-20T15:59:32;102393.0;;;18.5;77.8
72124;BME280;63818;37.134;-8.548;2022-11-20T16:04:18;102387.1;;;18.4;77.9
72124;BME280;63818;37.134;-8.548;2022-11-20T16:09:04;102383.1;;;18.3;78.5
72124;BME280;63818;37.134;-8.548;2022-11-20T16:13:50;102387.7;;;18.2;79.4
72124;BME280;63818;37.134;-8.548;2022-11-20T16:18:36;102386.6;;;18.2;80.1
72124;BME280;63818;37.134;-8.548;2022-11-20T16:23:22;102382.9;;;18.1;80.6
72124;BME280;63818;37.134;-8.548;2022-11-20T16:28:08;102382.0;;;18.1;81.2
72124;BME280;63818;37.134;-8.548;2022-11-20T16:32:55;102383.2;;;18.1;81.8
72124;BME280;63818;37.134;-8.548;2022-11-20T16:37:52;102376.4;;;18.1;81.9
72124;BME280;63818;37.134;-8.548;2022-11-20T16:42:40;102369.0;;;18.1;82.4
72124;BME280;63818;37.134;-8.548;2022-11-20T16:47:26;102356.5;;;18.1;80.6
72124;BME280;63818;37.134;-8.548;2022-11-20T16:52:14;102348.7;;;18.0;78.5
72124;BME280;63818;37.134;-8.548;2022-11-20T16:57:03;102343.7;;;18.1;75.9
72124;BME280;63818;37.134;-8.548;2022-11-20T17:01:48;102354.3;;;18.1;75.2
72124;BME280;63818;37.134;-8.548;2022-11-20T17:06:36;102353.9;;;17.9;74.1
72124;BME280;63818;37.134;-8.548;2022-11-20T17:11:23;102345.9;;;18.0;73.1
72124;BME280;63818;37.134;-8.548;2022-11-20T17:16:11;102349.1;;;17.9;73.4
72124;BME280;63818;37.134;-8.548;2022-11-20T17:21:00;102359.2;;;17.8;73.9
72124;BME280;63818;37.134;-8.548;2022-11-20T17:25:47;102355.6;;;17.7;74.3
72124;BME280;63818;37.134;-8.548;2022-11-20T17:30:33;102367.8;;;17.6;74.6
72124;BME280;63818;37.134;-8.548;2022-11-20T17:35:19;102359.6;;;17.6;74.9
72124;BME280;63818;37.134;-8.548;2022-11-20T17:40:10;102365.5;;;17.7;74.7
72124;BME280;63818;37.134;-8.548;2022-11-20T17:44:56;102371.7;;;17.6;75.6
72124;BME280;63818;37.134;-8.548;2022-11-20T17:49:47;102372.3;;;17.6;76.1
72124;BME280;63818;37.134;-8.548;2022-11-20T17:54:33;102383.2;;;17.6;75.8
72124;BME280;63818;37.134;-8.548;2022-11-20T17:59:20;102379.2;;;17.5;76.5
72124;BME280;63818;37.134;-8.548;2022-11-20T18:04:06;102393.7;;;17.4;76.9
72124;BME280;63818;37.134;-8.548;2022-11-20T18:08:53;102398.5;;;17.4;76.5
72124;BME280;63818;37.134;-8.548;2022-11-20T18:13:43;102399.8;;;17.5;76.4
72124;BME280;63818;37.134;-8.548;2022-11-20T18:18:30;102393.7;;;17.4;76.8
72124;BME280;63818;37.134;-8.548;2022-11-20T18:23:16;102384.0;;;17.3;77.4
72124;BME280;63818;37.134;-8.548;2022-11-20T18:28:02;102397.8;;;17.4;77.0
72124;BME280;63818;37.134;-8.548;2022-11-20T18:32:53;102406.5;;;17.2;78.3
72124;BME280;63818;37.134;-8.548;2022-11-20T18:37:39;102410.4;;;17.2;78.2
72124;BME280;63818;37.134;-8.548;2022-11-20T18:42:25;102409.6;;;17.2;78.7
72124;BME280;63818;37.134;-8.548;2022-11-20T18:47:15;102417.7;;;17.2;78.3
72124;BME280;63818;37.134;-8.548;2022-11-20T18:52:02;102414.5;;;17.1;78.8
72124;BME280;63818;37.134;-8.548;2022-11-20T18:56:50;102431.9;;;17.1;79.4
72124;BME280;63818;37.134;-8.548;2022-11-20T19:01:36;102434.9;;;17.1;79.4
72124;BME280;63818;37.134;-8.548;2022-11-20T19:06:22;102436.4;;;17.0;80.1
72124;BME280;63818;37.134;-8.548;2022-11-20T19:11:10;102451.4;;;17.0;80.2
72124;BME280;63818;37.134;-8.548;2022-11-20T19:16:03;102444.2;;;17.0;81.5
72124;BME280;63818;37.134;-8.548;2022-11-20T19:20:49;102450.3;;;17.0;81.7
72124;BME280;63818;37.134;-8.548;2022-11-20T19:25:38;102461.8;;;17.0;82.7
72124;BME280;63818;37.134;-8.548;2022-11-20T19:30:26;102456.4;;;17.0;83.0
72124;BME280;63818;37.134;-8.548;2022-11-20T19:35:15;102459.4;;;17.0;83.6
72124;BME280;63818;37.134;-8.548;2022-11-20T19:40:00;102467.4;;;17.0;83.6
72124;BME280;63818;37.134;-8.548;2022-11-20T19:44:48;102468.0;;;16.9;84.5
72124;BME280;63818;37.134;-8.548;2022-11-20T19:49:34;102462.4;;;17.0;84.6
72124;BME280;63818;37.134;-8.548;2022-11-20T19:54:23;102456.5;;;16.9;84.8
72124;BME280;63818;37.134;-8.548;2022-11-20T19:59:09;102472.2;;;17.0;84.6
72124;BME280;63818;37.134;-8.548;2022-11-20T20:03:56;102463.2;;;16.7;85.8
72124;BME280;63818;37.134;-8.548;2022-11-20T20:08:43;102450.2;;;16.9;85.5
72124;BME280;63818;37.134;-8.548;2022-11-20T20:13:29;102457.4;;;16.9;84.7
72124;BME280;63818;37.134;-8.548;2022-11-20T20:18:14;102454.5;;;16.9;85.0
72124;BME280;63818;37.134;-8.548;2022-11-20T20:23:01;102440.2;;;16.8;85.2
72124;BME280;63818;37.134;-8.548;2022-11-20T20:27:47;102445.7;;;16.9;84.6
72124;BME280;63818;37.134;-8.548;2022-11-20T20:32:38;102436.7;;;16.9;84.6
72124;BME280;63818;37.134;-8.548;2022-11-20T20:37:27;102444.5;;;17.0;84.5
72124;BME280;63818;37.134;-8.548;2022-11-20T20:42:13;102439.0;;;16.9;84.6
72124;BME280;63818;37.134;-8.548;2022-11-20T20:46:59;102439.2;;;16.9;84.6
72124;BME280;63818;37.134;-8.548;2022-11-20T20:51:44;102428.7;;;16.8;85.4
72124;BME280;63818;37.134;-8.548;2022-11-20T20:56:31;102439.8;;;16.9;84.7
72124;BME280;63818;37.134;-8.548;2022-11-20T21:01:19;102435.8;;;16.9;84.8
72124;BME280;63818;37.134;-8.548;2022-11-20T21:06:06;102432.6;;;16.8;85.1
72124;BME280;63818;37.134;-8.548;2022-11-20T21:11:01;102439.2;;;16.8;85.1
72124;BME280;63818;37.134;-8.548;2022-11-20T21:15:50;102438.0;;;16.8;85.0
72124;BME280;63818;37.134;-8.548;2022-11-20T21:20:37;102434.7;;;16.9;84.9
72124;BME280;63818;37.134;-8.548;2022-11-20T21:25:23;102428.9;;;16.9;85.2
72124;BME280;63818;37.134;-8.548;2022-11-20T21:30:10;102425.8;;;16.9;85.3
72124;BME280;63818;37.134;-8.548;2022-11-20T21:34:56;102439.8;;;16.9;85.4
72124;BME280;63818;37.134;-8.548;2022-11-20T21:39:52;102444.8;;;16.9;85.3
72124;BME280;63818;37.134;-8.548;2022-11-20T21:44:41;102446.7;;;16.9;85.3
72124;BME280;63818;37.134;-8.548;2022-11-20T21:49:27;102439.8;;;16.9;85.4
72124;BME280;63818;37.134;-8.548;2022-11-20T21:54:21;102438.6;;;16.9;85.4
72124;BME280;63818;37.134;-8.548;2022-11-20T21:59:09;102442.1;;;16.9;85.4
72124;BME280;63818;37.134;-8.548;2022-11-20T22:04:01;102448.0;;;16.9;85.4
72124;BME280;63818;37.134;-8.548;2022-11-20T22:08:52;102444.3;;;16.9;85.4
72124;BME280;63818;37.134;-8.548;2022-11-20T22:13:48;102443.5;;;16.9;84.6
72124;BME280;63818;37.134;-8.548;2022-11-20T22:18:35;102444.3;;;16.9;84.7
72124;BME280;63818;37.134;-8.548;2022-11-20T22:23:21;102438.4;;;16.9;84.7
72124;BME280;63818;37.134;-8.548;2022-11-20T22:28:12;102438.1;;;16.9;84.6
72124;BME280;63818;37.134;-8.548;2022-11-20T22:33:02;102449.0;;;16.9;84.3
72124;BME280;63818;37.134;-8.548;2022-11-20T22:37:52;102451.0;;;16.9;84.4
72124;BME280;63818;37.134;-8.548;2022-11-20T22:42:38;102461.1;;;16.9;84.4
72124;BME280;63818;37.134;-8.548;2022-11-20T22:47:24;102469.0;;;17.0;84.2
72124;BME280;63818;37.134;-8.548;2022-11-20T22:52:14;102456.7;;;17.0;84.3
72124;BME280;63818;37.134;-8.548;2022-11-20T22:57:00;102450.9;;;17.0;84.5
72124;BME280;63818;37.134;-8.548;2022-11-20T23:01:46;102438.8;;;17.0;84.4
72124;BME280;63818;37.134;-8.548;2022-11-20T23:06:32;102436.2;;;16.9;84.3
72124;BME280;63818;37.134;-8.548;2022-11-20T23:11:23;102428.3;;;16.9;84.6
72124;BME280;63818;37.134;-8.548;2022-11-20T23:16:11;102431.9;;;16.9;84.1
72124;BME280;63818;37.134;-8.548;2022-11-20T23:21:02;102436.0;;;16.9;84.0
72124;BME280;63818;37.134;-8.548;2022-11-20T23:25:48;102427.0;;;16.9;84.4
72124;BME280;63818;37.134;-8.548;2022-11-20T23:30:34;102414.6;;;16.9;84.4
72124;BME280;63818;37.134;-8.548;2022-11-20T23:35:20;102416.5;;;16.9;84.0
72124;BME280;63818;37.134;-8.548;2022-11-20T23:40:09;102407.9;;;16.8;83.8
72124;BME280;63818;37.134;-8.548;2022-11-20T23:44:55;102405.1;;;16.8;83.9
72124;BME280;63818;37.134;-8.548;2022-11-20T23:49:43;102401.1;;;16.8;83.8
72124;BME280;63818;37.134;-8.548;2022-11-20T23:54:28;102400.6;;;16.8;84.3
72124;BME280;63818;37.134;-8.548;2022-11-20T23:59:15;102390.1;;;16.8;83.8
